• Join FlightAware (Why Join?)
  • Login
  • US Flag 
01:18AM EST


 

Airport Tracker/Info


-or-


 

Live Flight TrackerFlight Track Log ✈ N327SR ✈ 20-Oct-2013 ✈ KCRE - KIPJ

Flight Track Log - Related Links

Times and Time Zones

All times are in EDT time to prevent confusion due to time zone crossing. See the N327SR flight status page for this flight to view local times or setup timezone preferences in your user account.

Time Position Orientation Groundspeed Altitude Reporting Facility
EDT Latitude Longitude Course Direction KTS MPH feet Rate Location/Type
04:37PM 33.9676 -78.9442 310° West  Level Estimated
04:38PM 33.9935 -78.9810 311° West  Level Estimated
04:39PM 34.0195 -79.0177 310° West  Level FlightAware Approximate
04:40PM 34.0454 -79.0545 310° West  Level FlightAware Approximate
04:41PM 34.0713 -79.0914 310° West  Level FlightAware Approximate
04:42PM 34.0973 -79.1282 310° West  Level FlightAware Approximate
04:43PM 34.1232 -79.1651 310° West  Level FlightAware Approximate
04:44PM 34.1491 -79.2020 310° West  Level FlightAware Approximate
04:45PM 34.1749 -79.2389 310° West  Level FlightAware Approximate
04:46PM 34.2008 -79.2758 310° West  Level FlightAware Approximate
04:47PM 34.2267 -79.3128 310° West  Level FlightAware Approximate
04:48PM 34.2525 -79.3498 310° West  Level FlightAware Approximate
04:49PM 34.2784 -79.3868 310° West  Level FlightAware Approximate
04:50PM 34.3042 -79.4238 310° West  Level FlightAware Approximate
04:51PM 34.3300 -79.4608 310° West  Level FlightAware Approximate
04:52PM 34.3558 -79.4979 310° West  Level FlightAware Approximate
04:53PM 34.3816 -79.5350 310° West  Level FlightAware Approximate
04:54PM 34.4074 -79.5721 310° West  Level FlightAware Approximate
04:55PM 34.4332 -79.6093 310° West  Level FlightAware Approximate
04:56PM 34.4589 -79.6464 310° West  Level FlightAware Approximate
04:57PM 34.4847 -79.6836 310° West  Level FlightAware Approximate
04:58PM 34.5104 -79.7208 310° West  Level FlightAware Approximate
04:59PM 34.5361 -79.7581 310° West  Level FlightAware Approximate
05:00PM 34.5619 -79.7953 310° West  Level FlightAware Approximate
05:01PM 34.5876 -79.8326 310° West  Level FlightAware Approximate
05:02PM 34.6132 -79.8699 310° West  Level FlightAware Approximate
05:03PM 34.6389 -79.9072 310° West  Level FlightAware Approximate
05:04PM 34.6646 -79.9446 310° West  Level FlightAware Approximate
05:05PM 34.6902 -79.9820 309° West  Level Estimated
05:06PM 34.7157 -80.0195 310° West  Level FlightAware Approximate
05:07PM 34.7412 -80.0571 310° West  Level FlightAware Approximate
05:07PM 34.7611 -80.0744 309° West 163 188 6,100  Level Atlanta Center
05:08PM 34.7688 -80.0979 309° West  Level FlightAware Approximate
05:08PM 34.7833 -80.1086 308° West 157 181 6,100  Level Atlanta Center
05:09PM 34.7963 -80.1387 309° West  Level FlightAware Approximate
05:09PM 34.8117 -80.1503 310° West 153 176 6,100  Level Atlanta Center
05:10PM 34.8238 -80.1795 309° West  Level FlightAware Approximate
05:10PM 34.8381 -80.1897 309° West 154 177 6,100  Level Atlanta Center
05:11PM 34.8513 -80.2203 309° West  Level FlightAware Approximate
05:11PM 34.8642 -80.2314 307° West 160 184 5,700  Level Atlanta Center
05:12PM 34.8788 -80.2612 309° West  Level FlightAware Approximate
05:12PM 34.8967 -80.2656 319° Northwest 169 194 5,300  Level Atlanta Center
05:13PM 34.9311 -80.3044 317° Northwest 161 185 5,100 -180 Descending Atlanta Center
05:14PM 34.9678 -80.3433 319° Northwest 146 168 4,900 -300 Descending Atlanta Center
05:15PM 34.9958 -80.3725 320° Northwest 157 181 4,600 -480 Descending Atlanta Center
05:16PM 35.0306 -80.4142 316° Northwest 172 198 4,100 -300 Descending Atlanta Center
05:17PM 35.0608 -80.4508 315° West 167 192 4,100  Level Atlanta Center
05:18PM 35.0975 -80.4925 317° Northwest 154 177 4,100  Level Atlanta Center
05:19PM 35.1294 -80.5164 329° Northwest 153 176 4,100  Level Atlanta Center
05:20PM 35.1614 -80.5431 326° Northwest 152 175 4,100  Level Atlanta Center
05:21PM 35.1978 -80.5694 329° Northwest 151 174 4,100  Level Atlanta Center
05:22PM 35.2361 -80.6008 326° Northwest 152 175 4,100  Level Atlanta Center
05:23PM 35.2725 -80.6325 325° Northwest 149 171 4,100  Level Atlanta Center
05:24PM 35.3089 -80.6614 327° Northwest 152 175 4,100  Level Atlanta Center
05:25PM 35.3450 -80.6931 324° Northwest 154 177 4,100  Level Atlanta Center
05:26PM 35.3569 -80.7411 287° West 150 173 4,100  Level Atlanta Center
05:27PM 35.3933 -80.7778 321° Northwest 156 180 4,100  Level Atlanta Center
05:28PM 35.4050 -80.8256 287° West 153 176 4,100 -120 Level Atlanta Center
05:29PM 35.4189 -80.8786 288° West 157 181 3,900 -360 Descending Atlanta Center
05:30PM 35.4350 -80.9417 287° West 173 199 3,400 -480 Descending Atlanta Center
05:32PM 35.4449 -81.0062 281° West  Level FlightAware Approximate
05:39PM 35.4667 -81.1500 285° West  Level FlightAware Approximate